KHTL/HTL METAR and TAF weather

Enter ICAO airport designator
Station Type Date Time Source
KHTL METAR 2019/08/22 19:53 UTC NOAA

KHTL 221953Z AUTO 33006KT 10SM BKN060 19/07 A3006 RMK AO2 SLP181 T01940072


Station Type Date Time Source
KHTL Decoded METAR 2019/08/22 19:53 UTC NOAA

Station name not available
Aug 22, 2019 - 03:53 PM EDT / 2019.08.22 1953 UTC
Wind: from the NNW (330 degrees) at 7 MPH (6 KT):0
Visibility: 10 mile(s):0
Sky conditions: mostly cloudy
Temperature: 66.9 F (19.4 C)
Dew Point: 45.0 F (7.2 C)
Relative Humidity: 45%
Pressure (altimeter): 30.06 in. Hg (1017 hPa)
ob: KHTL 221953Z AUTO 33006KT 10SM BKN060 19/07 A3006 RMK AO2 SLP181 T01940072
cycle: 20

Station Type Date Time Source
KHTL TAF UTC NOAA

Error!

Example: see airport list